< < Back
Terminal Aerodrome Forecast


Current Version              Previous Versions:   1  2  3  4  5  6  7  8  9  

Terminal Aerodrome Forecast

408
FTUS42 KTAE 190538
TAFDHN
TAF
KDHN 190538Z 1906/2006 18005KT 3SM -RA BR SCT007 BKN120
     FM190900 21013G20KT 3SM TSRA SCT003 BKN020CB
     FM191900 22010G15KT P6SM BKN050
     FM200000 21011KT P6SM BKN250=

Latest METAR

539
SAUS70 KWBC 190900 RRE
MTRDHN
METAR KDHN 190853Z AUTO 14007KT 9SM SCT006 BKN120 22/21 A2986 RMK AO2
RAE02 SLP105 P0000 60003 T02170206 55023


USA.gov is the U.S. government's official web portal to all federal, state and local government web resources and services.